createdAt,value
2019-03-31T00:03:11.158Z,99.90
2019-03-31T00:06:35.047Z,99.90
2019-03-31T00:09:58.893Z,99.90
2019-03-31T00:13:22.657Z,99.90
2019-03-31T00:16:46.464Z,99.90
2019-03-31T00:20:10.717Z,99.90
2019-03-31T00:23:34.687Z,99.90
2019-03-31T00:26:58.564Z,99.90
2019-03-31T00:30:22.453Z,99.90
2019-03-31T00:33:46.286Z,99.90
2019-03-31T00:37:10.119Z,99.90
2019-03-31T00:40:34.007Z,99.90
2019-03-31T00:43:57.804Z,99.90
2019-03-31T00:47:21.631Z,99.90
2019-03-31T00:50:45.479Z,99.90
2019-03-31T00:54:12.108Z,99.90
2019-03-31T00:57:36.280Z,99.90
2019-03-31T01:01:03.336Z,99.90
2019-03-31T01:04:30.913Z,99.90
2019-03-31T01:07:55.776Z,99.90
2019-03-31T01:11:21.716Z,99.90
2019-03-31T01:14:45.622Z,99.90
2019-03-31T01:18:10.076Z,99.90
2019-03-31T01:21:33.937Z,99.90
2019-03-31T01:24:57.818Z,99.90
2019-03-31T01:28:22.857Z,99.90
2019-03-31T01:31:50.547Z,99.90
2019-03-31T01:35:13.863Z,99.90
2019-03-31T01:38:37.757Z,99.90
2019-03-31T01:42:01.569Z,99.90
2019-03-31T01:45:25.835Z,99.90
2019-03-31T01:48:49.854Z,99.90
2019-03-31T01:52:13.648Z,99.90
2019-03-31T01:55:37.441Z,99.90
2019-03-31T01:59:01.335Z,99.90
2019-03-31T02:02:29.496Z,99.90
2019-03-31T02:05:56.073Z,99.90
2019-03-31T02:09:19.906Z,99.90
2019-03-31T02:12:43.830Z,99.90
2019-03-31T02:16:07.636Z,99.90
2019-03-31T02:19:31.521Z,99.90
2019-03-31T02:22:55.291Z,99.90
2019-03-31T02:26:19.359Z,99.90
2019-03-31T02:29:43.113Z,99.90
2019-03-31T02:33:06.877Z,99.90
2019-03-31T02:36:30.799Z,99.90
2019-03-31T02:39:54.592Z,99.90
2019-03-31T02:43:18.549Z,99.90
2019-03-31T02:46:42.373Z,99.90
2019-03-31T02:50:06.974Z,99.90
2019-03-31T02:53:30.700Z,99.90
2019-03-31T02:56:55.414Z,99.90
2019-03-31T03:00:19.288Z,99.90
2019-03-31T03:03:44.196Z,99.90
2019-03-31T03:07:10.147Z,99.90
2019-03-31T03:10:35.734Z,99.90
2019-03-31T03:14:02.487Z,99.90
2019-03-31T03:17:26.311Z,99.90
2019-03-31T03:20:50.153Z,99.90
2019-03-31T03:24:14.030Z,99.90
2019-03-31T03:27:37.895Z,99.90
2019-03-31T03:31:01.938Z,99.90
2019-03-31T03:34:25.881Z,99.90
2019-03-31T03:37:49.625Z,99.90
2019-03-31T03:41:13.424Z,99.90
2019-03-31T03:44:37.312Z,99.90
2019-03-31T03:48:01.128Z,99.90
2019-03-31T03:51:24.920Z,99.90
2019-03-31T03:54:48.778Z,99.90
2019-03-31T03:58:12.586Z,99.90
2019-03-31T04:01:36.419Z,99.90
2019-03-31T04:05:00.587Z,99.90
2019-03-31T04:08:24.572Z,99.90
2019-03-31T04:11:48.435Z,99.90
2019-03-31T04:15:12.222Z,99.90
2019-03-31T04:18:36.025Z,99.90
2019-03-31T04:22:00.030Z,99.90
2019-03-31T04:25:24.010Z,99.90
2019-03-31T04:28:47.717Z,99.90
2019-03-31T04:32:11.527Z,99.90
2019-03-31T04:35:35.619Z,99.90
2019-03-31T04:39:00.393Z,99.90
2019-03-31T04:42:24.714Z,99.90
2019-03-31T04:45:48.504Z,99.90
2019-03-31T04:49:12.473Z,99.90
2019-03-31T04:52:36.258Z,99.90
2019-03-31T04:56:00.043Z,99.90
2019-03-31T04:59:23.876Z,99.90
2019-03-31T05:02:47.572Z,99.90
2019-03-31T05:06:11.346Z,99.90
2019-03-31T05:09:36.003Z,99.90
2019-03-31T05:12:59.852Z,99.90
2019-03-31T05:16:23.674Z,99.90
2019-03-31T05:19:47.554Z,99.90
2019-03-31T05:23:11.377Z,99.90
2019-03-31T05:26:35.174Z,99.90
2019-03-31T05:29:58.928Z,99.90
2019-03-31T05:33:22.754Z,99.90
2019-03-31T05:36:46.604Z,99.90
2019-03-31T05:40:11.454Z,99.90
2019-03-31T05:43:35.209Z,99.90
2019-03-31T05:46:59.371Z,99.90
2019-03-31T05:50:23.171Z,94.40
2019-03-31T05:53:47.166Z,81.40
2019-03-31T05:57:11.069Z,73.30
2019-03-31T06:00:38.031Z,67.60
2019-03-31T06:04:01.766Z,63.50
2019-03-31T06:07:25.760Z,61.20
2019-03-31T06:10:49.485Z,58.80
2019-03-31T06:14:13.344Z,54.60
2019-03-31T06:17:37.164Z,54.40
2019-03-31T06:21:01.134Z,51.70
2019-03-31T06:24:26.976Z,51.40
2019-03-31T06:27:50.751Z,48.30
2019-03-31T06:31:15.444Z,44.10
2019-03-31T06:34:47.162Z,43.70
2019-03-31T06:38:04.889Z,42.60
2019-03-31T06:41:28.594Z,42.70
2019-03-31T06:44:52.514Z,42.90
2019-03-31T06:48:16.284Z,43.20
2019-03-31T06:51:40.046Z,44.70
2019-03-31T06:55:06.410Z,42.90
2019-03-31T06:58:30.391Z,41.70
2019-03-31T07:01:54.192Z,40.50
2019-03-31T07:05:20.009Z,41.30
2019-03-31T07:08:44.609Z,40.10
2019-03-31T07:12:08.424Z,40.60
2019-03-31T07:15:32.230Z,38.40
2019-03-31T07:18:56.170Z,37.60
2019-03-31T07:22:20.351Z,37.10
2019-03-31T07:25:44.126Z,35.00
2019-03-31T07:29:08.471Z,33.80
2019-03-31T07:32:32.285Z,33.60
2019-03-31T07:35:56.266Z,31.60
2019-03-31T07:39:22.308Z,33.90
2019-03-31T07:42:46.304Z,34.40
2019-03-31T07:46:10.142Z,34.50
2019-03-31T07:49:36.790Z,33.80
2019-03-31T07:53:01.493Z,34.60
2019-03-31T07:56:25.211Z,34.30
2019-03-31T07:59:48.978Z,33.70
2019-03-31T08:03:13.369Z,32.30
2019-03-31T08:06:37.304Z,33.10
2019-03-31T08:10:03.851Z,32.40
2019-03-31T08:13:27.704Z,33.30
2019-03-31T08:16:51.527Z,34.00
2019-03-31T08:20:17.301Z,33.10
2019-03-31T08:23:41.074Z,33.50
2019-03-31T08:27:05.670Z,33.10
2019-03-31T08:30:29.702Z,33.40
2019-03-31T08:33:53.581Z,31.50
2019-03-31T08:37:17.598Z,32.30
2019-03-31T08:40:41.485Z,32.50
2019-03-31T08:44:05.476Z,30.50
2019-03-31T08:47:29.435Z,29.90
2019-03-31T08:50:53.272Z,31.20
2019-03-31T08:54:17.053Z,28.90
2019-03-31T08:57:41.029Z,30.00
2019-03-31T09:01:09.377Z,30.50
2019-03-31T09:04:33.267Z,29.60
2019-03-31T09:07:57.119Z,28.80
2019-03-31T09:11:21.024Z,29.70
2019-03-31T09:14:45.333Z,28.80
2019-03-31T09:18:09.174Z,28.10
2019-03-31T09:21:33.270Z,27.80
2019-03-31T09:24:57.056Z,27.10
2019-03-31T09:28:20.916Z,27.30
2019-03-31T09:31:44.811Z,27.60
2019-03-31T09:35:09.479Z,28.30
2019-03-31T09:38:33.345Z,28.50
2019-03-31T09:41:57.121Z,27.20
2019-03-31T09:45:21.231Z,25.60
2019-03-31T09:48:45.492Z,26.90
2019-03-31T09:52:09.275Z,25.40
2019-03-31T09:55:33.092Z,25.00
2019-03-31T09:58:56.950Z,24.90
2019-03-31T10:02:20.895Z,24.40
2019-03-31T10:05:48.205Z,25.60
2019-03-31T10:09:12.284Z,23.80
2019-03-31T10:12:38.877Z,23.70
2019-03-31T10:16:02.705Z,24.00
2019-03-31T10:19:26.743Z,25.10
2019-03-31T10:22:50.724Z,26.00
2019-03-31T10:26:16.137Z,24.50
2019-03-31T10:29:40.307Z,25.10
2019-03-31T10:33:04.917Z,24.50
2019-03-31T10:36:29.014Z,24.30
2019-03-31T10:39:54.448Z,23.60
2019-03-31T10:43:18.412Z,24.20
2019-03-31T10:46:42.709Z,25.00
2019-03-31T10:50:08.296Z,24.70
2019-03-31T10:53:32.282Z,25.00
2019-03-31T10:56:56.598Z,25.80
2019-03-31T11:00:24.055Z,24.60
2019-03-31T11:03:48.018Z,26.60
2019-03-31T11:07:13.104Z,27.20
2019-03-31T11:10:37.706Z,27.60
2019-03-31T11:14:01.677Z,26.20
2019-03-31T11:17:25.524Z,26.60
2019-03-31T11:20:49.479Z,27.10
2019-03-31T11:24:14.002Z,27.20
2019-03-31T11:27:43.707Z,28.50
2019-03-31T11:31:06.621Z,29.30
2019-03-31T11:34:30.419Z,28.10
2019-03-31T11:37:54.441Z,29.70
2019-03-31T11:41:18.314Z,31.80
2019-03-31T11:44:42.279Z,33.70
2019-03-31T11:48:06.249Z,29.90
2019-03-31T11:51:30.394Z,30.00
2019-03-31T11:54:54.229Z,30.20
2019-03-31T11:58:18.308Z,30.60
2019-03-31T12:01:42.320Z,28.60
2019-03-31T12:05:07.916Z,29.20
2019-03-31T12:08:31.846Z,29.80
2019-03-31T12:11:55.703Z,29.70
2019-03-31T12:15:19.670Z,29.40
2019-03-31T12:18:43.746Z,32.60
2019-03-31T12:22:07.641Z,33.70
2019-03-31T12:25:31.422Z,36.80
2019-03-31T12:28:55.519Z,36.00
2019-03-31T12:32:19.256Z,36.30
2019-03-31T12:35:43.229Z,36.30
2019-03-31T12:39:08.699Z,38.40
2019-03-31T12:42:34.831Z,36.80
2019-03-31T12:46:03.062Z,32.80
2019-03-31T12:49:26.861Z,33.80
2019-03-31T12:52:51.261Z,34.90
2019-03-31T12:56:15.384Z,37.10
2019-03-31T12:59:39.318Z,39.00
2019-03-31T13:03:03.302Z,40.70
2019-03-31T13:06:27.111Z,41.70
2019-03-31T13:09:50.963Z,42.90
2019-03-31T13:13:15.364Z,42.30
2019-03-31T13:16:39.248Z,41.10
2019-03-31T13:20:06.893Z,41.70
2019-03-31T13:23:30.664Z,42.80
2019-03-31T13:26:54.480Z,41.10
2019-03-31T13:30:21.749Z,41.10
2019-03-31T13:33:44.286Z,41.90
2019-03-31T13:37:08.283Z,43.00
2019-03-31T13:40:32.033Z,44.80
2019-03-31T13:43:56.141Z,46.20
2019-03-31T13:47:20.032Z,46.40
2019-03-31T13:50:44.240Z,46.10
2019-03-31T13:54:07.967Z,47.50
2019-03-31T13:57:32.537Z,48.00
2019-03-31T14:00:57.358Z,48.20
2019-03-31T14:04:21.486Z,48.00
2019-03-31T14:07:45.366Z,48.20
2019-03-31T14:11:09.182Z,48.50
2019-03-31T14:14:33.134Z,49.10
2019-03-31T14:17:57.173Z,49.40
2019-03-31T14:21:21.062Z,49.00
2019-03-31T14:24:45.286Z,49.50
2019-03-31T14:28:09.142Z,49.50
2019-03-31T14:31:33.264Z,50.40
2019-03-31T14:34:59.869Z,48.60
2019-03-31T14:38:23.717Z,47.10
2019-03-31T14:41:47.662Z,47.40
2019-03-31T14:45:14.486Z,49.00
2019-03-31T14:48:38.229Z,49.70
2019-03-31T14:52:02.277Z,51.90
2019-03-31T14:55:26.055Z,53.10
2019-03-31T14:58:50.048Z,54.20
2019-03-31T15:02:13.906Z,56.20
2019-03-31T15:05:37.804Z,57.70
2019-03-31T15:09:01.640Z,57.00
2019-03-31T15:12:25.521Z,56.10
2019-03-31T15:15:49.559Z,55.80
2019-03-31T15:19:13.603Z,55.90
2019-03-31T15:22:37.482Z,56.40
2019-03-31T15:26:01.257Z,56.30
2019-03-31T15:29:25.283Z,57.20
2019-03-31T15:32:49.230Z,58.50
2019-03-31T15:36:13.258Z,59.50
2019-03-31T15:39:37.051Z,60.60
2019-03-31T15:43:01.623Z,61.50
2019-03-31T15:46:26.306Z,62.10
2019-03-31T15:49:50.074Z,63.00
2019-03-31T15:53:14.042Z,63.10
2019-03-31T15:56:38.115Z,63.70
2019-03-31T16:00:02.093Z,63.90
2019-03-31T16:03:26.950Z,64.80
2019-03-31T16:06:50.764Z,64.30
2019-03-31T16:10:15.647Z,64.70
2019-03-31T16:13:40.194Z,66.50
2019-03-31T16:17:04.046Z,69.50
2019-03-31T16:20:27.950Z,74.60
2019-03-31T16:23:52.053Z,79.20
2019-03-31T16:27:15.887Z,83.00
2019-03-31T16:30:39.717Z,87.50
2019-03-31T16:34:03.623Z,89.20
2019-03-31T16:37:27.707Z,91.30
2019-03-31T16:40:51.444Z,92.40
2019-03-31T16:44:15.361Z,94.00
2019-03-31T16:47:39.329Z,96.10
2019-03-31T16:51:05.157Z,97.90
2019-03-31T16:54:29.067Z,99.50
2019-03-31T16:57:53.248Z,99.90
2019-03-31T17:01:18.357Z,99.90
2019-03-31T17:04:42.297Z,99.90
2019-03-31T17:08:06.121Z,99.90
2019-03-31T17:11:30.067Z,99.90
2019-03-31T17:14:54.024Z,99.90
2019-03-31T17:18:18.432Z,99.90
2019-03-31T17:21:42.266Z,99.90
2019-03-31T17:25:06.568Z,99.90
2019-03-31T17:28:30.528Z,99.90
2019-03-31T17:31:54.280Z,99.90
2019-03-31T17:35:18.117Z,99.90
2019-03-31T17:38:41.981Z,99.90
2019-03-31T17:42:06.790Z,99.90
2019-03-31T17:45:30.756Z,99.90
2019-03-31T17:48:56.354Z,99.90
2019-03-31T17:52:20.599Z,99.90
2019-03-31T17:55:44.657Z,99.90
2019-03-31T17:59:09.051Z,99.90
2019-03-31T18:02:34.151Z,99.90
2019-03-31T18:05:57.868Z,99.90
2019-03-31T18:09:21.919Z,99.90
2019-03-31T18:12:45.784Z,99.90
2019-03-31T18:16:09.779Z,99.90
2019-03-31T18:19:33.580Z,99.90
2019-03-31T18:22:57.540Z,99.90
2019-03-31T18:26:21.629Z,99.90
2019-03-31T18:29:45.818Z,99.90
2019-03-31T18:33:09.604Z,99.90
2019-03-31T18:36:37.047Z,99.90
2019-03-31T18:39:59.549Z,99.90
2019-03-31T18:43:23.937Z,99.90
2019-03-31T18:46:47.966Z,99.90
2019-03-31T18:50:11.830Z,99.90
2019-03-31T18:57:52.851Z,99.90
2019-03-31T19:01:33.739Z,99.90
2019-03-31T19:05:01.937Z,99.90
2019-03-31T19:08:36.520Z,99.90
2019-03-31T19:12:20.181Z,99.90
2019-03-31T19:16:02.837Z,99.90
2019-03-31T19:19:43.341Z,99.90
2019-03-31T19:23:09.024Z,99.90
2019-03-31T19:26:48.327Z,99.90
2019-03-31T19:30:15.456Z,99.90
2019-03-31T19:33:41.754Z,99.90
2019-03-31T19:37:13.259Z,99.90
2019-03-31T19:41:04.096Z,99.90
2019-03-31T19:44:27.402Z,99.90
2019-03-31T19:47:55.996Z,99.90
2019-03-31T19:51:24.098Z,99.90
2019-03-31T19:54:55.412Z,99.90
2019-03-31T19:58:35.974Z,99.90
2019-03-31T20:02:02.143Z,99.90
2019-03-31T20:05:28.476Z,99.90
2019-03-31T20:08:54.099Z,99.90
2019-03-31T20:12:19.776Z,99.90
2019-03-31T20:15:48.309Z,99.90
2019-03-31T20:19:25.875Z,99.90
2019-03-31T20:22:51.980Z,99.90
2019-03-31T20:26:22.067Z,99.90
2019-03-31T20:29:57.121Z,99.90
2019-03-31T20:33:25.399Z,99.90
2019-03-31T20:36:54.226Z,99.90
2019-03-31T20:40:20.172Z,99.90
2019-03-31T20:43:55.544Z,99.90
2019-03-31T20:47:19.295Z,99.90
2019-03-31T20:50:43.633Z,99.90
2019-03-31T20:54:07.426Z,99.90
2019-03-31T20:57:31.275Z,99.90
2019-03-31T21:00:55.107Z,99.90
2019-03-31T21:04:18.824Z,99.90
2019-03-31T21:07:42.726Z,99.90
2019-03-31T21:11:06.487Z,99.90
2019-03-31T21:14:30.539Z,99.90
2019-03-31T21:17:54.309Z,99.90
2019-03-31T21:21:18.180Z,99.90
2019-03-31T21:24:41.996Z,99.90
2019-03-31T21:28:05.786Z,99.90
2019-03-31T21:31:31.606Z,99.90
2019-03-31T21:34:55.513Z,99.90
2019-03-31T21:38:19.373Z,99.90
2019-03-31T21:41:43.267Z,99.90
2019-03-31T21:45:07.169Z,99.90
2019-03-31T21:48:30.955Z,99.90
2019-03-31T21:51:56.880Z,99.90
2019-03-31T21:55:20.918Z,99.90
2019-03-31T21:58:44.726Z,99.90
2019-03-31T22:02:12.746Z,99.90
2019-03-31T22:05:36.922Z,99.90
2019-03-31T22:09:00.644Z,99.90
2019-03-31T22:12:25.171Z,99.90
2019-03-31T22:15:48.913Z,99.90
2019-03-31T22:19:12.763Z,99.90
2019-03-31T22:22:36.604Z,99.90
2019-03-31T22:26:01.222Z,99.90
2019-03-31T22:29:25.066Z,99.90
2019-03-31T22:32:48.910Z,99.90
2019-03-31T22:36:21.283Z,99.90
2019-03-31T22:39:46.117Z,99.90
2019-03-31T22:43:09.889Z,99.90
2019-03-31T22:46:35.555Z,99.90
2019-03-31T22:49:59.426Z,99.90
2019-03-31T22:53:23.167Z,99.90
2019-03-31T22:56:46.980Z,99.90
2019-03-31T23:00:13.967Z,99.90
2019-03-31T23:03:37.803Z,99.90
2019-03-31T23:07:01.603Z,99.90
2019-03-31T23:10:25.348Z,99.90
2019-03-31T23:13:49.222Z,99.90
2019-03-31T23:17:13.146Z,99.90
2019-03-31T23:20:37.058Z,99.90
2019-03-31T23:24:00.842Z,99.90
2019-03-31T23:27:24.599Z,99.90
2019-03-31T23:30:48.454Z,99.90
2019-03-31T23:34:12.258Z,99.90
2019-03-31T23:37:36.115Z,99.90
2019-03-31T23:40:59.884Z,99.90
2019-03-31T23:44:23.697Z,99.90
2019-03-31T23:47:47.497Z,99.90
2019-03-31T23:51:11.419Z,99.90
2019-03-31T23:54:35.263Z,99.90
2019-03-31T23:57:58.985Z,99.90
